createdAt,value
2018-09-24T00:01:59.629Z,1.60
2018-09-24T00:04:28.067Z,1.57
2018-09-24T00:06:58.812Z,1.23
2018-09-24T00:09:29.465Z,1.60
2018-09-24T00:12:00.083Z,1.10
2018-09-24T00:14:29.121Z,1.60
2018-09-24T00:17:00.593Z,1.50
2018-09-24T00:19:31.049Z,1.70
2018-09-24T00:22:01.125Z,1.40
2018-09-24T00:24:30.197Z,1.57
2018-09-24T00:27:00.666Z,1.93
2018-09-24T00:29:31.029Z,1.40
2018-09-24T00:31:59.614Z,1.70
2018-09-24T00:34:30.423Z,1.37
2018-09-24T00:37:00.904Z,1.27
2018-09-24T00:39:30.666Z,1.03
2018-09-24T00:41:59.312Z,1.43
2018-09-24T00:44:29.668Z,1.33
2018-09-24T00:46:58.246Z,1.73
2018-09-24T00:49:28.904Z,1.57
2018-09-24T00:51:59.228Z,1.70
2018-09-24T00:54:29.376Z,1.77
2018-09-24T00:56:59.179Z,2.17
2018-09-24T00:59:29.402Z,1.63
2018-09-24T01:01:58.114Z,2.10
2018-09-24T01:04:28.559Z,1.53
2018-09-24T01:06:58.950Z,1.73
2018-09-24T01:09:28.299Z,1.50
2018-09-24T01:11:58.344Z,1.63
2018-09-24T01:14:28.463Z,1.63
2018-09-24T01:16:56.966Z,1.60
2018-09-24T01:19:27.470Z,1.80
2018-09-24T01:21:57.885Z,1.63
2018-09-24T01:24:28.348Z,1.60
2018-09-24T01:26:57.047Z,1.90
2018-09-24T01:29:27.264Z,1.87
2018-09-24T01:31:55.760Z,1.37
2018-09-24T01:34:26.324Z,1.63
2018-09-24T01:36:56.139Z,1.80
2018-09-24T01:39:24.971Z,1.63
2018-09-24T01:41:55.150Z,1.60
2018-09-24T01:44:25.094Z,1.80
2018-09-24T01:46:53.811Z,1.20
2018-09-24T01:49:23.835Z,1.50
2018-09-24T01:51:55.607Z,1.33
2018-09-24T01:54:28.529Z,1.50
2018-09-24T01:56:58.923Z,1.30
2018-09-24T01:59:27.512Z,1.30
2018-09-24T02:01:57.662Z,1.60
2018-09-24T02:04:27.985Z,1.50
2018-09-24T02:07:02.172Z,2.00
2018-09-24T02:09:32.832Z,1.40
2018-09-24T02:12:07.154Z,1.73
2018-09-24T02:14:38.164Z,1.90
2018-09-24T02:17:11.276Z,2.80
2018-09-24T02:19:42.039Z,1.37
2018-09-24T02:22:13.443Z,1.50
2018-09-24T02:24:43.835Z,1.43
2018-09-24T02:27:12.458Z,1.70
2018-09-24T02:29:42.643Z,1.70
2018-09-24T02:32:13.139Z,2.00
2018-09-24T02:34:41.705Z,1.50
2018-09-24T02:37:17.702Z,1.80
2018-09-24T02:39:48.177Z,1.80
2018-09-24T02:42:16.672Z,1.50
2018-09-24T02:44:46.964Z,1.73
2018-09-24T02:47:15.528Z,1.93
2018-09-24T02:49:45.927Z,1.70
2018-09-24T02:52:16.285Z,2.13
2018-09-24T02:54:46.025Z,2.17
2018-09-24T02:57:15.714Z,2.30
2018-09-24T02:59:47.958Z,2.03
2018-09-24T03:02:18.353Z,2.50
2018-09-24T03:04:49.359Z,2.70
2018-09-24T03:07:18.861Z,2.50
2018-09-24T03:09:50.510Z,2.30
2018-09-24T03:12:20.389Z,2.50
2018-09-24T03:14:48.937Z,2.23
2018-09-24T03:17:20.016Z,2.50
2018-09-24T03:19:50.274Z,2.93
2018-09-24T03:22:24.842Z,2.67
2018-09-24T03:24:55.014Z,2.53
2018-09-24T03:27:25.622Z,2.50
2018-09-24T03:29:56.025Z,3.10
2018-09-24T03:32:26.324Z,2.40
2018-09-24T03:34:54.856Z,2.67
2018-09-24T03:37:25.590Z,3.43
2018-09-24T03:39:56.112Z,2.83
2018-09-24T03:42:26.342Z,3.50
2018-09-24T03:44:54.932Z,2.50
2018-09-24T03:47:25.289Z,2.50
2018-09-24T03:49:53.943Z,2.63
2018-09-24T03:52:24.136Z,2.90
2018-09-24T03:54:54.145Z,2.30
2018-09-24T03:57:22.799Z,2.27
2018-09-24T03:59:53.221Z,2.37
2018-09-24T04:02:23.593Z,2.53
2018-09-24T04:04:57.281Z,2.70
2018-09-24T04:07:32.774Z,2.70
2018-09-24T04:10:06.562Z,2.40
2018-09-24T04:12:40.169Z,2.30
2018-09-24T04:15:15.452Z,2.37
2018-09-24T04:17:49.253Z,2.80
2018-09-24T04:20:23.043Z,2.80
2018-09-24T04:22:59.061Z,3.03
2018-09-24T04:25:33.991Z,2.80
2018-09-24T04:28:09.878Z,2.30
2018-09-24T04:30:43.842Z,2.90
2018-09-24T04:33:19.369Z,3.03
2018-09-24T04:35:53.243Z,2.87
2018-09-24T04:38:26.919Z,3.00
2018-09-24T04:41:02.255Z,2.80
2018-09-24T04:43:36.203Z,3.13
2018-09-24T04:46:11.179Z,3.17
2018-09-24T04:48:45.417Z,3.77
2018-09-24T04:51:19.156Z,2.93
2018-09-24T04:54:00.023Z,3.13
2018-09-24T04:56:34.014Z,3.30
2018-09-24T04:59:08.019Z,3.23
2018-09-24T05:01:43.626Z,3.90
2018-09-24T05:04:17.523Z,3.80
2018-09-24T05:06:53.354Z,3.60
2018-09-24T05:09:27.294Z,3.80
2018-09-24T05:12:01.315Z,4.60
2018-09-24T05:14:37.181Z,4.10
2018-09-24T05:17:11.190Z,4.03
2018-09-24T05:19:46.017Z,3.63
2018-09-24T05:22:19.942Z,3.87
2018-09-24T05:24:54.066Z,3.03
2018-09-24T05:27:29.890Z,3.83
2018-09-24T05:30:03.664Z,3.90
2018-09-24T05:32:39.053Z,3.87
2018-09-24T05:35:12.983Z,3.80
2018-09-24T05:37:48.375Z,3.53
2018-09-24T05:40:23.180Z,3.90
2018-09-24T05:42:56.897Z,3.80
2018-09-24T05:45:32.687Z,3.60
2018-09-24T05:48:06.367Z,3.37
2018-09-24T05:50:40.098Z,3.70
2018-09-24T05:53:15.822Z,3.93
2018-09-24T05:55:49.806Z,3.53
2018-09-24T05:58:25.631Z,3.43
2018-09-24T06:00:59.429Z,3.83
2018-09-24T06:03:34.983Z,4.10
2018-09-24T06:06:08.717Z,4.23
2018-09-24T06:08:42.431Z,3.80
2018-09-24T06:11:18.567Z,3.30
2018-09-24T06:13:52.215Z,3.63
2018-09-24T06:16:26.009Z,3.80
2018-09-24T06:19:01.382Z,4.17
2018-09-24T06:21:35.385Z,3.83
2018-09-24T06:24:10.273Z,3.93
2018-09-24T06:26:44.401Z,3.57
2018-09-24T06:29:18.619Z,4.00
2018-09-24T06:31:54.412Z,4.20
2018-09-24T06:34:28.267Z,3.53
2018-09-24T06:37:04.226Z,4.53
2018-09-24T06:39:37.977Z,3.47
2018-09-24T06:42:11.642Z,3.07
2018-09-24T06:44:47.031Z,2.93
2018-09-24T06:47:20.855Z,2.83
2018-09-24T06:49:58.887Z,3.27
2018-09-24T06:52:32.717Z,2.90
2018-09-24T06:55:08.379Z,3.23
2018-09-24T06:57:42.777Z,3.43
2018-09-24T07:00:18.089Z,3.60
2018-09-24T07:02:51.789Z,3.60
2018-09-24T07:05:27.881Z,3.70
2018-09-24T07:08:01.767Z,3.70
2018-09-24T07:10:37.700Z,3.30
2018-09-24T07:13:11.407Z,2.63
2018-09-24T07:15:46.590Z,2.67
2018-09-24T07:18:21.032Z,2.83
2018-09-24T07:20:56.659Z,2.73
2018-09-24T07:23:30.489Z,3.20
2018-09-24T07:26:06.346Z,3.10
2018-09-24T07:28:40.265Z,3.13
2018-09-24T07:31:16.175Z,3.20
2018-09-24T07:33:49.987Z,2.67
2018-09-24T07:36:25.324Z,3.37
2018-09-24T07:38:59.340Z,2.50
2018-09-24T07:41:33.545Z,2.73
2018-09-24T07:44:08.525Z,3.23
2018-09-24T07:46:42.201Z,2.60
2018-09-24T07:49:17.589Z,2.40
2018-09-24T07:51:51.502Z,2.30
2018-09-24T07:54:27.413Z,1.90
2018-09-24T07:57:01.258Z,2.20
2018-09-24T07:59:36.396Z,2.23
2018-09-24T08:02:11.633Z,1.87
2018-09-24T08:04:45.557Z,2.00
2018-09-24T08:07:21.171Z,1.83
2018-09-24T08:09:54.851Z,1.43
2018-09-24T08:12:30.642Z,1.23
2018-09-24T08:15:04.736Z,1.10
2018-09-24T08:17:41.866Z,1.30
2018-09-24T08:20:15.790Z,0.93
2018-09-24T08:22:51.258Z,1.20
2018-09-24T08:25:27.973Z,0.90
2018-09-24T08:28:01.598Z,1.20
2018-09-24T08:30:35.379Z,1.00
2018-09-24T08:33:11.185Z,0.90
2018-09-24T08:35:45.037Z,1.03
2018-09-24T08:38:20.909Z,0.90
2018-09-24T08:40:54.655Z,1.20
2018-09-24T08:43:30.043Z,0.93
2018-09-24T08:46:04.051Z,1.37
2018-09-24T08:48:39.185Z,1.30
2018-09-24T08:51:12.942Z,1.10
2018-09-24T08:53:46.750Z,0.90
2018-09-24T08:56:22.265Z,1.00
2018-09-24T08:58:55.931Z,0.93
2018-09-24T09:01:31.752Z,1.40
2018-09-24T09:04:05.528Z,0.97
2018-09-24T09:06:41.496Z,1.30
2018-09-24T09:09:16.518Z,1.10
2018-09-24T09:11:52.209Z,1.00
2018-09-24T09:14:26.010Z,1.20
2018-09-24T09:17:01.451Z,1.10
2018-09-24T09:19:35.028Z,1.37
2018-09-24T09:22:10.754Z,2.57
2018-09-24T09:24:44.695Z,1.10
2018-09-24T09:27:20.059Z,1.30
2018-09-24T09:29:53.830Z,1.30
2018-09-24T09:32:29.952Z,1.90
2018-09-24T09:35:03.785Z,1.30
2018-09-24T09:37:39.888Z,1.70
2018-09-24T09:40:13.594Z,1.37
2018-09-24T09:42:47.424Z,1.20
2018-09-24T09:45:22.386Z,1.10
2018-09-24T09:47:56.210Z,1.57
2018-09-24T09:50:32.015Z,1.30
2018-09-24T09:53:05.749Z,1.10
2018-09-24T09:55:41.092Z,1.20
2018-09-24T09:58:15.192Z,1.30
2018-09-24T10:00:51.299Z,1.13
2018-09-24T10:03:25.198Z,1.30
2018-09-24T10:06:00.655Z,1.10
2018-09-24T10:08:34.517Z,0.97
2018-09-24T10:11:10.593Z,1.50
2018-09-24T10:13:44.492Z,1.13
2018-09-24T10:16:20.260Z,1.70
2018-09-24T10:18:54.114Z,1.07
2018-09-24T10:21:29.856Z,1.83
2018-09-24T10:24:03.599Z,1.30
2018-09-24T10:26:39.562Z,1.27
2018-09-24T10:29:14.641Z,0.90
2018-09-24T10:31:49.039Z,1.20
2018-09-24T10:34:22.790Z,1.20
2018-09-24T10:36:59.789Z,1.63
2018-09-24T10:39:35.775Z,1.20
2018-09-24T10:42:09.431Z,1.03
2018-09-24T10:44:45.273Z,1.30
2018-09-24T10:47:20.924Z,1.23
2018-09-24T10:49:54.627Z,0.90
2018-09-24T10:52:29.183Z,0.67
2018-09-24T10:55:03.718Z,1.00
2018-09-24T10:57:40.019Z,0.90
2018-09-24T11:00:13.881Z,1.10
2018-09-24T11:03:02.194Z,0.80
2018-09-24T11:05:35.932Z,1.10
2018-09-24T11:08:11.613Z,0.70
2018-09-24T11:10:45.536Z,0.90
2018-09-24T11:13:21.208Z,0.90
2018-09-24T11:15:55.364Z,1.53
2018-09-24T11:18:30.744Z,1.30
2018-09-24T11:21:04.482Z,1.50
2018-09-24T11:23:40.456Z,1.20
2018-09-24T11:28:50.365Z,1.23
2018-09-24T11:31:24.263Z,0.77
2018-09-24T11:33:59.706Z,0.97
2018-09-24T11:36:35.750Z,0.80
2018-09-24T11:39:11.165Z,0.97
2018-09-24T11:41:47.124Z,0.80
2018-09-24T11:44:23.275Z,0.70
2018-09-24T11:46:57.906Z,0.90
2018-09-24T11:49:33.178Z,0.77
2018-09-24T11:52:07.280Z,1.10
2018-09-24T11:54:42.543Z,0.80
2018-09-24T11:57:16.352Z,0.90
2018-09-24T11:59:51.809Z,2.43
2018-09-24T12:02:25.721Z,1.33
2018-09-24T12:05:01.561Z,1.40
2018-09-24T12:07:35.170Z,1.27
2018-09-24T12:10:10.739Z,1.70
2018-09-24T12:12:44.452Z,1.17
2018-09-24T12:15:19.753Z,1.20
2018-09-24T12:17:54.409Z,0.90
2018-09-24T12:20:29.872Z,1.47
2018-09-24T12:23:03.897Z,1.30
2018-09-24T12:25:39.281Z,0.83
2018-09-24T12:28:16.063Z,2.03
2018-09-24T12:30:50.096Z,1.40
2018-09-24T12:33:25.954Z,0.80
2018-09-24T12:36:04.295Z,0.93
2018-09-24T12:38:38.554Z,1.17
2018-09-24T12:41:12.371Z,0.97
2018-09-24T12:43:49.452Z,1.30
2018-09-24T12:46:24.979Z,0.80
2018-09-24T12:48:58.822Z,1.73
2018-09-24T12:51:36.581Z,1.50
2018-09-24T12:54:12.519Z,1.37
2018-09-24T12:56:46.733Z,1.33
2018-09-24T12:59:22.810Z,1.67
2018-09-24T13:01:59.177Z,1.20
2018-09-24T13:04:33.992Z,1.30
2018-09-24T13:07:09.339Z,1.37
2018-09-24T13:09:43.105Z,1.70
2018-09-24T13:12:19.854Z,1.10
2018-09-24T13:14:57.423Z,0.83
2018-09-24T13:17:31.860Z,1.10
2018-09-24T13:20:07.844Z,1.27
2018-09-24T13:22:41.689Z,1.20
2018-09-24T13:25:17.688Z,1.07
2018-09-24T13:27:51.588Z,1.40
2018-09-24T13:30:27.881Z,1.23
2018-09-24T13:33:01.910Z,1.13
2018-09-24T13:35:37.517Z,1.27
2018-09-24T13:38:11.284Z,1.17
2018-09-24T13:40:47.578Z,1.47
2018-09-24T13:43:21.483Z,1.10
2018-09-24T13:45:57.086Z,1.20
2018-09-24T13:48:30.914Z,0.80
2018-09-24T13:51:06.367Z,1.70
2018-09-24T13:53:40.462Z,1.00
2018-09-24T13:56:15.506Z,1.17
2018-09-24T13:58:49.421Z,1.60
2018-09-24T14:01:24.943Z,1.40
2018-09-24T14:03:58.920Z,1.50
2018-09-24T14:06:34.500Z,1.70
2018-09-24T14:09:10.044Z,1.90
2018-09-24T14:11:45.653Z,1.57
2018-09-24T14:14:19.685Z,2.10
2018-09-24T14:16:55.173Z,1.57
2018-09-24T14:19:30.230Z,1.23
2018-09-24T14:22:03.929Z,1.47
2018-09-24T14:24:39.745Z,1.50
2018-09-24T14:27:13.766Z,1.57
2018-09-24T14:29:47.423Z,1.80
2018-09-24T14:32:23.250Z,1.83
2018-09-24T14:34:57.726Z,1.50
2018-09-24T14:37:33.313Z,1.20
2018-09-24T14:40:07.041Z,1.57
2018-09-24T14:42:40.942Z,1.47
2018-09-24T14:45:17.089Z,1.60
2018-09-24T14:47:50.848Z,1.70
2018-09-24T14:50:25.035Z,1.67
2018-09-24T14:53:02.657Z,1.93
2018-09-24T14:55:38.300Z,1.30
2018-09-24T14:58:14.901Z,1.80
2018-09-24T15:00:53.514Z,1.50
2018-09-24T15:03:32.034Z,1.20
2018-09-24T15:06:07.783Z,1.10
2018-09-24T15:08:42.685Z,1.50
2018-09-24T15:11:17.575Z,1.20
2018-09-24T15:13:52.327Z,1.47
2018-09-24T15:16:26.979Z,1.10
2018-09-24T15:19:03.672Z,1.20
2018-09-24T15:21:37.559Z,1.03
2018-09-24T15:24:11.389Z,1.60
2018-09-24T15:26:47.010Z,1.00
2018-09-24T15:29:21.754Z,1.60
2018-09-24T15:31:57.113Z,1.60
2018-09-24T15:34:31.191Z,1.37
2018-09-24T15:37:05.414Z,1.13
2018-09-24T15:39:42.588Z,1.10
2018-09-24T15:42:17.323Z,0.97
2018-09-24T15:44:53.354Z,1.20
2018-09-24T15:47:28.460Z,1.17
2018-09-24T15:50:05.174Z,1.30
2018-09-24T15:52:45.659Z,1.37
2018-09-24T15:55:19.564Z,1.23
2018-09-24T15:57:55.674Z,1.47
2018-09-24T16:00:29.674Z,1.03
2018-09-24T16:03:06.749Z,1.00
2018-09-24T16:05:40.721Z,0.97
2018-09-24T16:08:14.600Z,1.27
2018-09-24T16:10:51.001Z,0.90
2018-09-24T16:13:24.962Z,1.00
2018-09-24T16:15:59.299Z,1.10
2018-09-24T16:18:34.814Z,0.90
2018-09-24T16:21:08.746Z,1.20
2018-09-24T16:23:42.554Z,1.00
2018-09-24T16:26:19.987Z,0.90
2018-09-24T16:28:53.686Z,1.30
2018-09-24T16:31:27.452Z,0.93
2018-09-24T16:34:02.721Z,1.73
2018-09-24T16:36:37.243Z,1.20
2018-09-24T16:39:15.337Z,1.10
2018-09-24T16:41:49.353Z,1.70
2018-09-24T16:44:23.296Z,1.20
2018-09-24T16:46:58.612Z,1.20
2018-09-24T16:49:32.525Z,1.43
2018-09-24T16:52:06.415Z,1.40
2018-09-24T16:54:40.422Z,1.50
2018-09-24T16:57:17.478Z,1.50
2018-09-24T16:59:51.226Z,1.40
2018-09-24T17:02:27.927Z,1.13
2018-09-24T17:05:01.595Z,1.60
2018-09-24T17:07:35.488Z,1.33
2018-09-24T17:10:11.451Z,0.90
2018-09-24T17:12:45.802Z,1.23
2018-09-24T17:15:19.390Z,1.53
2018-09-24T17:17:53.264Z,1.73
2018-09-24T17:20:29.075Z,1.30
2018-09-24T17:23:03.072Z,1.90
2018-09-24T17:25:36.985Z,1.40
2018-09-24T17:28:10.800Z,1.40
2018-09-24T17:30:46.842Z,1.40
2018-09-24T17:33:20.908Z,1.17
2018-09-24T17:35:54.655Z,1.27
2018-09-24T17:38:28.401Z,1.00
2018-09-24T17:41:04.145Z,1.70
2018-09-24T17:43:37.719Z,1.30
2018-09-24T17:46:11.519Z,1.50
2018-09-24T17:48:45.291Z,1.40
2018-09-24T17:51:18.960Z,1.00
2018-09-24T17:53:54.276Z,1.40
2018-09-24T17:56:29.012Z,1.73
2018-09-24T17:59:03.628Z,1.27
2018-09-24T18:01:37.370Z,1.20
2018-09-24T18:04:14.050Z,1.30
2018-09-24T18:06:49.510Z,1.20
2018-09-24T18:09:23.619Z,1.00
2018-09-24T18:11:57.568Z,1.13
2018-09-24T18:14:31.282Z,1.20
2018-09-24T18:17:07.136Z,0.93
2018-09-24T18:19:41.033Z,0.90
2018-09-24T18:22:14.833Z,1.17
2018-09-24T18:24:48.721Z,1.60
2018-09-24T18:27:23.753Z,1.83
2018-09-24T18:29:59.697Z,1.50
2018-09-24T18:32:33.534Z,1.30
2018-09-24T18:35:07.289Z,1.30
2018-09-24T18:37:41.013Z,1.47
2018-09-24T18:40:14.966Z,1.80
2018-09-24T18:42:48.570Z,1.43
2018-09-24T18:45:22.384Z,3.00
2018-09-24T18:47:56.129Z,3.17
2018-09-24T18:50:29.862Z,2.53
2018-09-24T18:53:03.533Z,1.63
2018-09-24T18:55:38.590Z,1.63
2018-09-24T18:58:14.306Z,1.73
2018-09-24T19:00:48.478Z,1.50
2018-09-24T19:03:22.334Z,1.60
2018-09-24T19:05:56.118Z,1.27
2018-09-24T19:08:30.805Z,1.60
2018-09-24T19:11:06.603Z,2.00
2018-09-24T19:13:40.701Z,1.80
2018-09-24T19:16:14.624Z,2.27
2018-09-24T19:18:48.355Z,2.17
2018-09-24T19:21:22.101Z,2.50
2018-09-24T19:23:55.682Z,1.87
2018-09-24T19:26:31.000Z,1.90
2018-09-24T19:29:06.698Z,2.33
2018-09-24T19:31:41.298Z,1.90
2018-09-24T19:34:15.013Z,1.87
2018-09-24T19:36:47.740Z,1.80
2018-09-24T19:39:21.544Z,2.27
2018-09-24T19:41:55.281Z,1.60
2018-09-24T19:44:31.105Z,2.37
2018-09-24T19:47:06.368Z,2.20
2018-09-24T19:49:40.129Z,2.60
2018-09-24T19:52:13.722Z,1.87
2018-09-24T19:54:49.307Z,1.97
2018-09-24T19:57:23.842Z,1.60
2018-09-24T19:59:57.594Z,1.87
2018-09-24T20:02:31.245Z,1.20
2018-09-24T20:05:07.502Z,1.63
2018-09-24T20:07:41.454Z,1.33
2018-09-24T20:10:15.412Z,1.30
2018-09-24T20:12:49.437Z,1.33
2018-09-24T20:15:23.170Z,1.10
2018-09-24T20:17:56.958Z,1.70
2018-09-24T20:20:30.689Z,1.40
2018-09-24T20:23:06.630Z,1.50
2018-09-24T20:25:41.791Z,1.60
2018-09-24T20:28:15.796Z,1.50
2018-09-24T20:30:50.734Z,1.70
2018-09-24T20:33:25.805Z,1.57
2018-09-24T20:35:59.637Z,1.57
2018-09-24T20:38:33.802Z,1.80
2018-09-24T20:41:07.583Z,1.60
2018-09-24T20:43:41.495Z,1.80
2018-09-24T20:46:15.291Z,1.93
2018-09-24T20:48:50.558Z,2.43
2018-09-24T20:51:25.294Z,1.83
2018-09-24T20:54:00.115Z,1.53
2018-09-24T20:56:35.995Z,2.00
2018-09-24T20:59:09.983Z,1.53
2018-09-24T21:01:43.738Z,1.97
2018-09-24T21:04:17.940Z,1.90
2018-09-24T21:06:54.815Z,2.13
2018-09-24T21:09:28.659Z,2.00
2018-09-24T21:12:02.478Z,1.87
2018-09-24T21:14:37.329Z,2.60
2018-09-24T21:17:12.589Z,2.47
2018-09-24T21:19:46.704Z,2.20
2018-09-24T21:22:20.616Z,2.50
2018-09-24T21:24:54.719Z,2.17
2018-09-24T21:27:28.509Z,2.60
2018-09-24T21:30:04.822Z,2.60
2018-09-24T21:32:39.099Z,2.50
2018-09-24T21:35:13.174Z,2.17
2018-09-24T21:37:50.149Z,1.90
2018-09-24T21:40:25.093Z,1.87
2018-09-24T21:43:03.290Z,1.80
2018-09-24T21:45:37.736Z,2.07
2018-09-24T21:48:13.401Z,2.17
2018-09-24T21:50:48.160Z,2.20
2018-09-24T21:53:23.979Z,2.30
2018-09-24T21:55:57.772Z,2.10
2018-09-24T21:58:31.681Z,2.27
2018-09-24T22:01:05.515Z,2.20
2018-09-24T22:03:41.571Z,2.10
2018-09-24T22:06:16.178Z,2.50
2018-09-24T22:08:49.841Z,2.20
2018-09-24T22:11:23.562Z,2.10
2018-09-24T22:13:57.246Z,2.40
2018-09-24T22:16:33.251Z,2.43
2018-09-24T22:19:15.013Z,2.80
2018-09-24T22:21:48.827Z,2.50
2018-09-24T22:24:22.674Z,2.27
2018-09-24T22:26:56.445Z,2.50
2018-09-24T22:29:31.837Z,2.43
2018-09-24T22:32:07.349Z,2.50
2018-09-24T22:34:41.245Z,2.90
2018-09-24T22:37:14.941Z,3.60
2018-09-24T22:39:51.189Z,2.97
2018-09-24T22:42:25.599Z,3.30
2018-09-24T22:44:59.424Z,2.97
2018-09-24T22:47:33.352Z,2.83
2018-09-24T22:50:07.121Z,2.90
2018-09-24T22:52:40.833Z,2.83
2018-09-24T22:55:14.775Z,2.83
2018-09-24T22:57:50.247Z,3.73
2018-09-24T23:00:24.233Z,3.10
2018-09-24T23:02:58.012Z,2.73
2018-09-24T23:05:31.833Z,2.90
2018-09-24T23:08:05.726Z,3.37
2018-09-24T23:10:39.564Z,2.63
2018-09-24T23:13:17.113Z,3.50
2018-09-24T23:15:51.762Z,3.30
2018-09-24T23:18:25.709Z,3.40
2018-09-24T23:21:01.806Z,3.07
2018-09-24T23:23:36.928Z,3.33
2018-09-24T23:26:11.489Z,2.90
2018-09-24T23:28:45.419Z,3.13
2018-09-24T23:31:20.877Z,2.97
2018-09-24T23:33:55.575Z,2.80
2018-09-24T23:36:29.725Z,2.27
2018-09-24T23:39:03.558Z,2.70
2018-09-24T23:41:37.796Z,2.67
2018-09-24T23:44:11.758Z,2.97
2018-09-24T23:46:47.364Z,2.73
2018-09-24T23:49:22.558Z,2.80
2018-09-24T23:51:56.197Z,2.70
2018-09-24T23:54:29.801Z,3.07
2018-09-24T23:57:03.926Z,3.03
2018-09-24T23:59:39.871Z,3.20
